sensor_id;sensor_type;location;lat;lon;timestamp;temperature;humidity
33988;DHT22;37428;53.580;-1.666;2022-09-21T00:01:19;14.30;72.70
33988;DHT22;37428;53.580;-1.666;2022-09-21T00:04:22;14.30;73.20
33988;DHT22;37428;53.580;-1.666;2022-09-21T00:07:25;14.30;73.00
33988;DHT22;37428;53.580;-1.666;2022-09-21T00:10:27;14.30;73.30
33988;DHT22;37428;53.580;-1.666;2022-09-21T00:13:30;14.30;73.70
33988;DHT22;37428;53.580;-1.666;2022-09-21T00:16:34;14.30;74.30
33988;DHT22;37428;53.580;-1.666;2022-09-21T00:19:38;14.30;75.10
33988;DHT22;37428;53.580;-1.666;2022-09-21T00:22:40;14.20;75.10
33988;DHT22;37428;53.580;-1.666;2022-09-21T00:25:42;14.20;75.30
33988;DHT22;37428;53.580;-1.666;2022-09-21T00:28:51;14.20;75.20
33988;DHT22;37428;53.580;-1.666;2022-09-21T00:31:56;14.20;75.20
33988;DHT22;37428;53.580;-1.666;2022-09-21T00:34:59;14.20;74.60
33988;DHT22;37428;53.580;-1.666;2022-09-21T00:38:07;14.20;75.20
33988;DHT22;37428;53.580;-1.666;2022-09-21T00:41:10;14.20;75.50
33988;DHT22;37428;53.580;-1.666;2022-09-21T00:44:33;14.20;76.00
33988;DHT22;37428;53.580;-1.666;2022-09-21T00:47:40;14.10;76.10
33988;DHT22;37428;53.580;-1.666;2022-09-21T00:50:47;14.10;76.10
33988;DHT22;37428;53.580;-1.666;2022-09-21T00:53:56;14.10;76.00
33988;DHT22;37428;53.580;-1.666;2022-09-21T00:57:02;14.10;76.50
33988;DHT22;37428;53.580;-1.666;2022-09-21T01:00:07;14.10;76.50
33988;DHT22;37428;53.580;-1.666;2022-09-21T01:03:26;14.10;76.60
33988;DHT22;37428;53.580;-1.666;2022-09-21T01:06:30;14.00;76.70
33988;DHT22;37428;53.580;-1.666;2022-09-21T01:09:39;14.00;76.50
33988;DHT22;37428;53.580;-1.666;2022-09-21T01:13:07;14.00;77.10
33988;DHT22;37428;53.580;-1.666;2022-09-21T01:16:15;14.00;77.10
33988;DHT22;37428;53.580;-1.666;2022-09-21T01:19:45;13.90;77.20
33988;DHT22;37428;53.580;-1.666;2022-09-21T01:23:06;13.80;77.60
33988;DHT22;37428;53.580;-1.666;2022-09-21T01:26:19;13.80;77.70
33988;DHT22;37428;53.580;-1.666;2022-09-21T01:29:33;13.80;78.00
33988;DHT22;37428;53.580;-1.666;2022-09-21T01:32:44;13.70;77.80
33988;DHT22;37428;53.580;-1.666;2022-09-21T01:36:11;13.70;77.50
33988;DHT22;37428;53.580;-1.666;2022-09-21T01:39:23;13.70;77.40
33988;DHT22;37428;53.580;-1.666;2022-09-21T01:42:34;13.70;77.20
33988;DHT22;37428;53.580;-1.666;2022-09-21T01:45:46;13.70;76.50
33988;DHT22;37428;53.580;-1.666;2022-09-21T01:48:57;13.80;76.80
33988;DHT22;37428;53.580;-1.666;2022-09-21T01:52:06;13.80;76.60
33988;DHT22;37428;53.580;-1.666;2022-09-21T01:55:16;13.80;76.70
33988;DHT22;37428;53.580;-1.666;2022-09-21T01:58:25;13.80;77.20
33988;DHT22;37428;53.580;-1.666;2022-09-21T02:01:36;13.80;77.10
33988;DHT22;37428;53.580;-1.666;2022-09-21T02:04:45;13.80;76.50
33988;DHT22;37428;53.580;-1.666;2022-09-21T02:07:48;13.80;75.70
33988;DHT22;37428;53.580;-1.666;2022-09-21T02:10:53;13.80;75.60
33988;DHT22;37428;53.580;-1.666;2022-09-21T02:13:57;13.70;76.10
33988;DHT22;37428;53.580;-1.666;2022-09-21T02:17:10;13.70;76.40
33988;DHT22;37428;53.580;-1.666;2022-09-21T02:20:19;13.70;75.10
33988;DHT22;37428;53.580;-1.666;2022-09-21T02:23:34;13.70;74.70
33988;DHT22;37428;53.580;-1.666;2022-09-21T02:26:41;13.60;74.90
33988;DHT22;37428;53.580;-1.666;2022-09-21T02:29:49;13.60;75.80
33988;DHT22;37428;53.580;-1.666;2022-09-21T02:33:07;13.50;75.50
33988;DHT22;37428;53.580;-1.666;2022-09-21T02:36:21;13.50;75.40
33988;DHT22;37428;53.580;-1.666;2022-09-21T02:39:42;13.40;75.60
33988;DHT22;37428;53.580;-1.666;2022-09-21T02:43:04;13.40;76.30
33988;DHT22;37428;53.580;-1.666;2022-09-21T02:46:13;13.30;76.10
33988;DHT22;37428;53.580;-1.666;2022-09-21T02:49:31;13.20;76.50
33988;DHT22;37428;53.580;-1.666;2022-09-21T02:52:36;13.10;77.00
33988;DHT22;37428;53.580;-1.666;2022-09-21T02:55:42;13.00;77.60
33988;DHT22;37428;53.580;-1.666;2022-09-21T02:58:49;13.00;77.90
33988;DHT22;37428;53.580;-1.666;2022-09-21T03:02:01;13.00;77.00
33988;DHT22;37428;53.580;-1.666;2022-09-21T03:05:10;13.10;77.20
33988;DHT22;37428;53.580;-1.666;2022-09-21T03:08:12;13.10;77.00
33988;DHT22;37428;53.580;-1.666;2022-09-21T03:11:29;13.10;76.20
33988;DHT22;37428;53.580;-1.666;2022-09-21T03:14:33;13.10;76.80
33988;DHT22;37428;53.580;-1.666;2022-09-21T03:17:36;13.10;76.70
33988;DHT22;37428;53.580;-1.666;2022-09-21T03:20:46;13.20;76.60
33988;DHT22;37428;53.580;-1.666;2022-09-21T03:23:50;13.20;75.90
33988;DHT22;37428;53.580;-1.666;2022-09-21T03:27:05;13.20;76.20
33988;DHT22;37428;53.580;-1.666;2022-09-21T03:30:09;13.20;76.10
33988;DHT22;37428;53.580;-1.666;2022-09-21T03:33:11;13.20;76.10
33988;DHT22;37428;53.580;-1.666;2022-09-21T03:36:15;13.20;76.70
33988;DHT22;37428;53.580;-1.666;2022-09-21T03:39:17;13.20;76.90
33988;DHT22;37428;53.580;-1.666;2022-09-21T03:42:21;13.10;77.10
33988;DHT22;37428;53.580;-1.666;2022-09-21T03:45:38;13.10;76.90
33988;DHT22;37428;53.580;-1.666;2022-09-21T03:48:42;13.10;77.60
33988;DHT22;37428;53.580;-1.666;2022-09-21T03:52:21;13.10;77.50
33988;DHT22;37428;53.580;-1.666;2022-09-21T03:55:15;13.10;77.50
33988;DHT22;37428;53.580;-1.666;2022-09-21T03:58:17;13.10;77.70
33988;DHT22;37428;53.580;-1.666;2022-09-21T04:01:35;13.00;77.80
33988;DHT22;37428;53.580;-1.666;2022-09-21T04:04:38;12.90;78.20
33988;DHT22;37428;53.580;-1.666;2022-09-21T04:07:50;12.90;78.70
33988;DHT22;37428;53.580;-1.666;2022-09-21T04:10:52;12.80;78.90
33988;DHT22;37428;53.580;-1.666;2022-09-21T04:13:56;12.70;79.00
33988;DHT22;37428;53.580;-1.666;2022-09-21T04:16:58;12.70;79.30
33988;DHT22;37428;53.580;-1.666;2022-09-21T04:20:02;12.70;79.50
33988;DHT22;37428;53.580;-1.666;2022-09-21T04:23:08;12.70;79.50
33988;DHT22;37428;53.580;-1.666;2022-09-21T04:26:19;12.80;79.70
33988;DHT22;37428;53.580;-1.666;2022-09-21T04:29:21;12.70;79.50
33988;DHT22;37428;53.580;-1.666;2022-09-21T04:32:23;12.80;79.50
33988;DHT22;37428;53.580;-1.666;2022-09-21T04:35:25;12.80;79.60
33988;DHT22;37428;53.580;-1.666;2022-09-21T04:38:30;12.80;79.60
33988;DHT22;37428;53.580;-1.666;2022-09-21T04:41:38;12.90;79.30
33988;DHT22;37428;53.580;-1.666;2022-09-21T04:44:41;12.90;79.30
33988;DHT22;37428;53.580;-1.666;2022-09-21T04:47:43;12.90;79.10
33988;DHT22;37428;53.580;-1.666;2022-09-21T04:50:47;13.00;78.70
33988;DHT22;37428;53.580;-1.666;2022-09-21T04:54:01;12.90;78.60
33988;DHT22;37428;53.580;-1.666;2022-09-21T04:57:03;13.00;78.70
33988;DHT22;37428;53.580;-1.666;2022-09-21T05:00:09;12.90;79.00
33988;DHT22;37428;53.580;-1.666;2022-09-21T05:03:11;12.90;79.10
33988;DHT22;37428;53.580;-1.666;2022-09-21T05:06:13;12.90;79.30
33988;DHT22;37428;53.580;-1.666;2022-09-21T05:09:20;12.90;79.40
33988;DHT22;37428;53.580;-1.666;2022-09-21T05:12:40;12.90;79.40
33988;DHT22;37428;53.580;-1.666;2022-09-21T05:15:43;12.80;79.80
33988;DHT22;37428;53.580;-1.666;2022-09-21T05:18:51;12.80;80.10
33988;DHT22;37428;53.580;-1.666;2022-09-21T05:21:55;12.80;80.30
33988;DHT22;37428;53.580;-1.666;2022-09-21T05:25:00;12.80;80.70
33988;DHT22;37428;53.580;-1.666;2022-09-21T05:28:03;12.90;81.10
33988;DHT22;37428;53.580;-1.666;2022-09-21T05:31:25;13.00;81.60
33988;DHT22;37428;53.580;-1.666;2022-09-21T05:34:44;13.10;80.90
33988;DHT22;37428;53.580;-1.666;2022-09-21T05:37:56;13.00;80.90
33988;DHT22;37428;53.580;-1.666;2022-09-21T05:41:03;13.00;80.30
33988;DHT22;37428;53.580;-1.666;2022-09-21T05:44:09;13.00;80.30
33988;DHT22;37428;53.580;-1.666;2022-09-21T05:47:22;13.10;81.40
33988;DHT22;37428;53.580;-1.666;2022-09-21T05:50:41;13.20;81.50
33988;DHT22;37428;53.580;-1.666;2022-09-21T05:54:17;13.20;81.30
33988;DHT22;37428;53.580;-1.666;2022-09-21T05:57:48;13.30;81.10
33988;DHT22;37428;53.580;-1.666;2022-09-21T06:01:07;13.30;80.80
33988;DHT22;37428;53.580;-1.666;2022-09-21T06:04:17;13.30;80.70
33988;DHT22;37428;53.580;-1.666;2022-09-21T06:07:21;13.30;80.60
33988;DHT22;37428;53.580;-1.666;2022-09-21T06:10:45;13.40;80.60
33988;DHT22;37428;53.580;-1.666;2022-09-21T06:14:05;13.30;80.80
33988;DHT22;37428;53.580;-1.666;2022-09-21T06:17:13;13.40;80.70
33988;DHT22;37428;53.580;-1.666;2022-09-21T06:20:29;13.40;80.40
33988;DHT22;37428;53.580;-1.666;2022-09-21T06:23:31;13.40;80.60
33988;DHT22;37428;53.580;-1.666;2022-09-21T06:26:34;13.30;80.50
33988;DHT22;37428;53.580;-1.666;2022-09-21T06:29:40;13.30;80.70
33988;DHT22;37428;53.580;-1.666;2022-09-21T06:32:45;13.30;81.00
33988;DHT22;37428;53.580;-1.666;2022-09-21T06:35:51;13.30;81.30
33988;DHT22;37428;53.580;-1.666;2022-09-21T06:38:54;13.30;81.50
33988;DHT22;37428;53.580;-1.666;2022-09-21T06:41:56;13.30;81.70
33988;DHT22;37428;53.580;-1.666;2022-09-21T06:45:00;13.30;81.60
33988;DHT22;37428;53.580;-1.666;2022-09-21T06:48:03;13.30;81.70
33988;DHT22;37428;53.580;-1.666;2022-09-21T06:51:19;13.20;82.10
33988;DHT22;37428;53.580;-1.666;2022-09-21T06:54:29;13.20;82.30
33988;DHT22;37428;53.580;-1.666;2022-09-21T06:57:31;13.20;82.60
33988;DHT22;37428;53.580;-1.666;2022-09-21T07:00:35;13.30;83.00
33988;DHT22;37428;53.580;-1.666;2022-09-21T07:03:38;13.30;82.70
33988;DHT22;37428;53.580;-1.666;2022-09-21T07:06:40;13.50;82.50
33988;DHT22;37428;53.580;-1.666;2022-09-21T07:09:44;13.60;82.00
33988;DHT22;37428;53.580;-1.666;2022-09-21T07:12:48;13.60;81.80
33988;DHT22;37428;53.580;-1.666;2022-09-21T07:15:55;13.60;81.60
33988;DHT22;37428;53.580;-1.666;2022-09-21T07:19:00;13.60;81.80
33988;DHT22;37428;53.580;-1.666;2022-09-21T07:22:06;13.60;81.90
33988;DHT22;37428;53.580;-1.666;2022-09-21T07:25:11;13.60;81.80
33988;DHT22;37428;53.580;-1.666;2022-09-21T07:28:17;13.70;81.90
33988;DHT22;37428;53.580;-1.666;2022-09-21T07:31:24;13.90;81.80
33988;DHT22;37428;53.580;-1.666;2022-09-21T07:34:26;14.10;80.90
33988;DHT22;37428;53.580;-1.666;2022-09-21T07:37:30;14.30;80.20
33988;DHT22;37428;53.580;-1.666;2022-09-21T07:40:33;14.50;79.40
33988;DHT22;37428;53.580;-1.666;2022-09-21T07:43:35;14.70;78.20
33988;DHT22;37428;53.580;-1.666;2022-09-21T07:46:41;15.00;77.60
33988;DHT22;37428;53.580;-1.666;2022-09-21T07:49:45;15.20;76.60
33988;DHT22;37428;53.580;-1.666;2022-09-21T07:52:47;15.40;76.00
33988;DHT22;37428;53.580;-1.666;2022-09-21T07:55:51;15.60;75.00
33988;DHT22;37428;53.580;-1.666;2022-09-21T07:58:53;15.90;73.60
33988;DHT22;37428;53.580;-1.666;2022-09-21T08:02:08;16.00;73.10
33988;DHT22;37428;53.580;-1.666;2022-09-21T08:05:11;16.30;71.80
33988;DHT22;37428;53.580;-1.666;2022-09-21T08:08:14;16.40;70.70
33988;DHT22;37428;53.580;-1.666;2022-09-21T08:11:18;16.60;69.80
33988;DHT22;37428;53.580;-1.666;2022-09-21T08:14:22;16.70;68.50
33988;DHT22;37428;53.580;-1.666;2022-09-21T08:17:27;16.70;68.80
33988;DHT22;37428;53.580;-1.666;2022-09-21T08:20:29;16.50;68.10
33988;DHT22;37428;53.580;-1.666;2022-09-21T08:23:31;16.30;68.90
33988;DHT22;37428;53.580;-1.666;2022-09-21T08:26:35;16.30;69.20
33988;DHT22;37428;53.580;-1.666;2022-09-21T08:29:37;16.30;68.90
33988;DHT22;37428;53.580;-1.666;2022-09-21T08:32:41;16.40;69.10
33988;DHT22;37428;53.580;-1.666;2022-09-21T08:35:51;16.70;69.20
33988;DHT22;37428;53.580;-1.666;2022-09-21T08:38:53;17.00;67.60
33988;DHT22;37428;53.580;-1.666;2022-09-21T08:42:26;17.20;67.10
33988;DHT22;37428;53.580;-1.666;2022-09-21T08:45:35;17.50;65.30
33988;DHT22;37428;53.580;-1.666;2022-09-21T08:48:43;17.80;64.80
33988;DHT22;37428;53.580;-1.666;2022-09-21T08:51:50;18.00;63.60
33988;DHT22;37428;53.580;-1.666;2022-09-21T08:54:56;18.10;62.90
33988;DHT22;37428;53.580;-1.666;2022-09-21T08:57:59;18.00;62.80
33988;DHT22;37428;53.580;-1.666;2022-09-21T09:01:20;17.90;64.00
33988;DHT22;37428;53.580;-1.666;2022-09-21T09:04:38;17.90;64.00
33988;DHT22;37428;53.580;-1.666;2022-09-21T09:11:40;18.00;62.90
33988;DHT22;37428;53.580;-1.666;2022-09-21T09:15:06;17.80;63.30
33988;DHT22;37428;53.580;-1.666;2022-09-21T09:18:19;17.60;63.20
33988;DHT22;37428;53.580;-1.666;2022-09-21T09:21:31;17.30;63.70
33988;DHT22;37428;53.580;-1.666;2022-09-21T09:24:37;17.10;63.80
33988;DHT22;37428;53.580;-1.666;2022-09-21T09:27:41;17.10;63.90
33988;DHT22;37428;53.580;-1.666;2022-09-21T09:30:47;17.10;64.30
33988;DHT22;37428;53.580;-1.666;2022-09-21T09:33:56;17.40;63.50
33988;DHT22;37428;53.580;-1.666;2022-09-21T09:37:09;17.70;61.70
33988;DHT22;37428;53.580;-1.666;2022-09-21T09:40:13;18.00;60.90
33988;DHT22;37428;53.580;-1.666;2022-09-21T09:43:24;18.30;61.40
33988;DHT22;37428;53.580;-1.666;2022-09-21T09:46:35;18.70;60.70
33988;DHT22;37428;53.580;-1.666;2022-09-21T09:49:52;18.90;58.70
33988;DHT22;37428;53.580;-1.666;2022-09-21T09:53:02;19.00;56.30
33988;DHT22;37428;53.580;-1.666;2022-09-21T09:56:10;19.30;57.40
33988;DHT22;37428;53.580;-1.666;2022-09-21T09:59:21;19.30;55.80
33988;DHT22;37428;53.580;-1.666;2022-09-21T10:02:26;19.40;55.40
33988;DHT22;37428;53.580;-1.666;2022-09-21T10:05:31;19.50;55.10
33988;DHT22;37428;53.580;-1.666;2022-09-21T10:08:45;19.60;55.40
33988;DHT22;37428;53.580;-1.666;2022-09-21T10:11:47;19.80;55.40
33988;DHT22;37428;53.580;-1.666;2022-09-21T10:14:51;19.90;53.80
33988;DHT22;37428;53.580;-1.666;2022-09-21T10:18:01;20.00;53.90
33988;DHT22;37428;53.580;-1.666;2022-09-21T10:21:16;20.10;53.40
33988;DHT22;37428;53.580;-1.666;2022-09-21T10:24:26;20.20;51.40
33988;DHT22;37428;53.580;-1.666;2022-09-21T10:27:33;20.30;51.90
33988;DHT22;37428;53.580;-1.666;2022-09-21T10:30:36;20.40;50.00
33988;DHT22;37428;53.580;-1.666;2022-09-21T10:33:52;20.50;49.40
33988;DHT22;37428;53.580;-1.666;2022-09-21T10:36:56;20.40;49.80
33988;DHT22;37428;53.580;-1.666;2022-09-21T10:40:03;20.60;49.40
33988;DHT22;37428;53.580;-1.666;2022-09-21T10:43:22;20.50;48.70
33988;DHT22;37428;53.580;-1.666;2022-09-21T10:46:42;20.10;47.80
33988;DHT22;37428;53.580;-1.666;2022-09-21T10:49:49;19.90;50.00
33988;DHT22;37428;53.580;-1.666;2022-09-21T10:52:55;19.70;50.80
33988;DHT22;37428;53.580;-1.666;2022-09-21T10:56:02;19.40;50.10
33988;DHT22;37428;53.580;-1.666;2022-09-21T10:59:21;19.30;50.40
33988;DHT22;37428;53.580;-1.666;2022-09-21T11:02:34;19.40;50.30
33988;DHT22;37428;53.580;-1.666;2022-09-21T11:05:40;19.30;50.80
33988;DHT22;37428;53.580;-1.666;2022-09-21T11:08:51;19.30;49.70
33988;DHT22;37428;53.580;-1.666;2022-09-21T11:12:00;19.70;48.60
33988;DHT22;37428;53.580;-1.666;2022-09-21T11:15:14;19.80;46.30
33988;DHT22;37428;53.580;-1.666;2022-09-21T11:18:23;19.60;44.50
33988;DHT22;37428;53.580;-1.666;2022-09-21T11:21:33;19.40;45.30
33988;DHT22;37428;53.580;-1.666;2022-09-21T11:24:43;19.20;45.80
33988;DHT22;37428;53.580;-1.666;2022-09-21T11:27:51;19.00;47.20
33988;DHT22;37428;53.580;-1.666;2022-09-21T11:31:23;18.90;47.60
33988;DHT22;37428;53.580;-1.666;2022-09-21T11:34:41;18.80;47.90
33988;DHT22;37428;53.580;-1.666;2022-09-21T11:37:51;18.90;48.00
33988;DHT22;37428;53.580;-1.666;2022-09-21T11:41:07;18.90;48.90
33988;DHT22;37428;53.580;-1.666;2022-09-21T11:44:27;18.90;49.10
33988;DHT22;37428;53.580;-1.666;2022-09-21T11:47:54;18.90;47.50
33988;DHT22;37428;53.580;-1.666;2022-09-21T11:51:07;18.90;46.90
33988;DHT22;37428;53.580;-1.666;2022-09-21T11:54:45;19.00;46.30
33988;DHT22;37428;53.580;-1.666;2022-09-21T11:57:57;19.00;47.90
33988;DHT22;37428;53.580;-1.666;2022-09-21T12:01:11;19.20;47.10
33988;DHT22;37428;53.580;-1.666;2022-09-21T12:04:33;19.20;47.10
33988;DHT22;37428;53.580;-1.666;2022-09-21T12:07:55;19.10;47.70
33988;DHT22;37428;53.580;-1.666;2022-09-21T12:11:11;19.20;48.60
33988;DHT22;37428;53.580;-1.666;2022-09-21T12:14:24;19.10;49.40
33988;DHT22;37428;53.580;-1.666;2022-09-21T12:17:41;19.10;48.70
33988;DHT22;37428;53.580;-1.666;2022-09-21T12:20:49;19.20;48.20
33988;DHT22;37428;53.580;-1.666;2022-09-21T12:23:55;19.10;47.50
33988;DHT22;37428;53.580;-1.666;2022-09-21T12:27:01;18.90;47.80
33988;DHT22;37428;53.580;-1.666;2022-09-21T12:30:10;18.80;48.70
33988;DHT22;37428;53.580;-1.666;2022-09-21T12:33:19;18.80;49.20
33988;DHT22;37428;53.580;-1.666;2022-09-21T12:36:29;18.70;48.10
33988;DHT22;37428;53.580;-1.666;2022-09-21T12:39:36;18.80;48.20
33988;DHT22;37428;53.580;-1.666;2022-09-21T12:42:45;19.30;47.20
33988;DHT22;37428;53.580;-1.666;2022-09-21T12:45:51;19.50;46.30
33988;DHT22;37428;53.580;-1.666;2022-09-21T12:48:58;19.90;45.50
33988;DHT22;37428;53.580;-1.666;2022-09-21T12:52:03;19.80;45.20
33988;DHT22;37428;53.580;-1.666;2022-09-21T12:55:31;20.00;44.70
33988;DHT22;37428;53.580;-1.666;2022-09-21T12:58:45;20.00;45.50
33988;DHT22;37428;53.580;-1.666;2022-09-21T13:01:52;19.80;45.50
33988;DHT22;37428;53.580;-1.666;2022-09-21T13:05:04;20.20;45.40
33988;DHT22;37428;53.580;-1.666;2022-09-21T13:08:10;20.50;44.50
33988;DHT22;37428;53.580;-1.666;2022-09-21T13:11:13;20.40;44.40
33988;DHT22;37428;53.580;-1.666;2022-09-21T13:14:21;20.20;44.80
33988;DHT22;37428;53.580;-1.666;2022-09-21T13:17:28;20.10;45.40
33988;DHT22;37428;53.580;-1.666;2022-09-21T13:20:37;19.80;45.80
33988;DHT22;37428;53.580;-1.666;2022-09-21T13:23:40;19.60;47.40
33988;DHT22;37428;53.580;-1.666;2022-09-21T13:26:50;19.40;46.90
33988;DHT22;37428;53.580;-1.666;2022-09-21T13:30:21;19.10;47.80
33988;DHT22;37428;53.580;-1.666;2022-09-21T13:33:31;19.00;48.50
33988;DHT22;37428;53.580;-1.666;2022-09-21T13:36:39;18.90;48.90
33988;DHT22;37428;53.580;-1.666;2022-09-21T13:39:43;18.90;48.40
33988;DHT22;37428;53.580;-1.666;2022-09-21T13:42:46;19.00;48.70
33988;DHT22;37428;53.580;-1.666;2022-09-21T13:45:54;18.90;48.30
33988;DHT22;37428;53.580;-1.666;2022-09-21T13:48:57;19.00;48.70
33988;DHT22;37428;53.580;-1.666;2022-09-21T13:52:05;18.90;49.80
33988;DHT22;37428;53.580;-1.666;2022-09-21T13:55:23;18.90;50.00
33988;DHT22;37428;53.580;-1.666;2022-09-21T13:58:28;18.80;50.10
33988;DHT22;37428;53.580;-1.666;2022-09-21T14:01:34;18.90;50.40
33988;DHT22;37428;53.580;-1.666;2022-09-21T14:04:36;18.80;50.80
33988;DHT22;37428;53.580;-1.666;2022-09-21T14:07:40;18.80;50.80
33988;DHT22;37428;53.580;-1.666;2022-09-21T14:10:49;18.80;50.60
33988;DHT22;37428;53.580;-1.666;2022-09-21T14:14:04;18.80;51.40
33988;DHT22;37428;53.580;-1.666;2022-09-21T14:17:33;18.80;52.30
33988;DHT22;37428;53.580;-1.666;2022-09-21T14:20:36;18.80;51.50
33988;DHT22;37428;53.580;-1.666;2022-09-21T14:23:40;18.80;51.50
33988;DHT22;37428;53.580;-1.666;2022-09-21T14:26:54;18.70;50.80
33988;DHT22;37428;53.580;-1.666;2022-09-21T14:30:00;18.70;51.40
33988;DHT22;37428;53.580;-1.666;2022-09-21T14:33:15;18.60;51.00
33988;DHT22;37428;53.580;-1.666;2022-09-21T14:36:25;18.60;51.20
33988;DHT22;37428;53.580;-1.666;2022-09-21T14:39:37;18.60;52.30
33988;DHT22;37428;53.580;-1.666;2022-09-21T14:42:42;18.60;52.10
33988;DHT22;37428;53.580;-1.666;2022-09-21T14:46:02;18.60;51.90
33988;DHT22;37428;53.580;-1.666;2022-09-21T14:52:56;18.60;50.20
33988;DHT22;37428;53.580;-1.666;2022-09-21T14:59:46;18.50;50.80
33988;DHT22;37428;53.580;-1.666;2022-09-21T15:03:01;18.40;51.60
33988;DHT22;37428;53.580;-1.666;2022-09-21T15:06:18;18.50;51.50
33988;DHT22;37428;53.580;-1.666;2022-09-21T15:14:06;18.50;51.70
33988;DHT22;37428;53.580;-1.666;2022-09-21T15:17:24;18.50;52.00
33988;DHT22;37428;53.580;-1.666;2022-09-21T15:20:30;18.50;52.60
33988;DHT22;37428;53.580;-1.666;2022-09-21T15:23:36;18.40;53.60
33988;DHT22;37428;53.580;-1.666;2022-09-21T15:26:40;18.40;53.60
33988;DHT22;37428;53.580;-1.666;2022-09-21T15:29:46;18.50;54.10
33988;DHT22;37428;53.580;-1.666;2022-09-21T15:32:52;18.40;52.90
33988;DHT22;37428;53.580;-1.666;2022-09-21T15:35:55;18.30;53.30
33988;DHT22;37428;53.580;-1.666;2022-09-21T15:39:02;18.20;53.20
33988;DHT22;37428;53.580;-1.666;2022-09-21T15:42:18;18.20;53.70
33988;DHT22;37428;53.580;-1.666;2022-09-21T15:45:24;18.20;54.20
33988;DHT22;37428;53.580;-1.666;2022-09-21T15:48:29;18.20;53.80
33988;DHT22;37428;53.580;-1.666;2022-09-21T15:51:41;18.20;54.30
33988;DHT22;37428;53.580;-1.666;2022-09-21T15:54:47;18.10;55.30
33988;DHT22;37428;53.580;-1.666;2022-09-21T15:57:53;18.10;55.30
33988;DHT22;37428;53.580;-1.666;2022-09-21T16:00:58;18.00;54.50
33988;DHT22;37428;53.580;-1.666;2022-09-21T16:04:04;18.00;55.20
33988;DHT22;37428;53.580;-1.666;2022-09-21T16:07:24;17.90;54.70
33988;DHT22;37428;53.580;-1.666;2022-09-21T16:10:36;17.90;55.80
33988;DHT22;37428;53.580;-1.666;2022-09-21T16:13:40;17.90;55.40
33988;DHT22;37428;53.580;-1.666;2022-09-21T16:17:22;17.90;55.70
33988;DHT22;37428;53.580;-1.666;2022-09-21T16:20:37;17.80;55.80
33988;DHT22;37428;53.580;-1.666;2022-09-21T16:23:40;17.80;55.50
33988;DHT22;37428;53.580;-1.666;2022-09-21T16:26:54;17.80;56.30
33988;DHT22;37428;53.580;-1.666;2022-09-21T16:29:57;17.90;56.80
33988;DHT22;37428;53.580;-1.666;2022-09-21T16:33:02;17.90;56.60
33988;DHT22;37428;53.580;-1.666;2022-09-21T16:36:36;17.90;56.70
33988;DHT22;37428;53.580;-1.666;2022-09-21T16:39:40;17.80;56.50
33988;DHT22;37428;53.580;-1.666;2022-09-21T16:42:42;17.80;57.00
33988;DHT22;37428;53.580;-1.666;2022-09-21T16:45:45;17.70;56.40
33988;DHT22;37428;53.580;-1.666;2022-09-21T16:48:49;17.60;56.60
33988;DHT22;37428;53.580;-1.666;2022-09-21T16:51:51;17.60;56.50
33988;DHT22;37428;53.580;-1.666;2022-09-21T16:54:56;17.60;56.20
33988;DHT22;37428;53.580;-1.666;2022-09-21T16:57:58;17.60;56.10
33988;DHT22;37428;53.580;-1.666;2022-09-21T17:01:00;17.70;56.20
33988;DHT22;37428;53.580;-1.666;2022-09-21T17:04:04;17.70;56.40
33988;DHT22;37428;53.580;-1.666;2022-09-21T17:07:08;17.70;56.20
33988;DHT22;37428;53.580;-1.666;2022-09-21T17:10:13;17.70;56.20
33988;DHT22;37428;53.580;-1.666;2022-09-21T17:13:16;17.70;56.60
33988;DHT22;37428;53.580;-1.666;2022-09-21T17:16:19;17.70;56.80
33988;DHT22;37428;53.580;-1.666;2022-09-21T17:19:23;17.70;57.00
33988;DHT22;37428;53.580;-1.666;2022-09-21T17:22:25;17.70;56.90
33988;DHT22;37428;53.580;-1.666;2022-09-21T17:25:28;17.70;57.20
33988;DHT22;37428;53.580;-1.666;2022-09-21T17:28:32;17.70;57.00
33988;DHT22;37428;53.580;-1.666;2022-09-21T17:31:36;17.60;57.00
33988;DHT22;37428;53.580;-1.666;2022-09-21T17:34:40;17.50;57.30
33988;DHT22;37428;53.580;-1.666;2022-09-21T17:37:42;17.50;56.70
33988;DHT22;37428;53.580;-1.666;2022-09-21T17:40:45;17.40;56.30
33988;DHT22;37428;53.580;-1.666;2022-09-21T17:43:56;17.30;57.40
33988;DHT22;37428;53.580;-1.666;2022-09-21T17:47:04;17.20;57.20
33988;DHT22;37428;53.580;-1.666;2022-09-21T17:50:19;17.20;56.80
33988;DHT22;37428;53.580;-1.666;2022-09-21T17:53:25;17.20;56.40
33988;DHT22;37428;53.580;-1.666;2022-09-21T17:56:42;17.10;56.30
33988;DHT22;37428;53.580;-1.666;2022-09-21T17:59:51;17.00;56.20
33988;DHT22;37428;53.580;-1.666;2022-09-21T18:02:58;17.00;56.10
33988;DHT22;37428;53.580;-1.666;2022-09-21T18:06:03;16.90;56.00
33988;DHT22;37428;53.580;-1.666;2022-09-21T18:09:06;16.90;56.00
33988;DHT22;37428;53.580;-1.666;2022-09-21T18:12:35;16.80;56.20
33988;DHT22;37428;53.580;-1.666;2022-09-21T18:15:51;16.80;56.90
33988;DHT22;37428;53.580;-1.666;2022-09-21T18:19:03;16.70;57.10
33988;DHT22;37428;53.580;-1.666;2022-09-21T18:22:13;16.50;57.60
33988;DHT22;37428;53.580;-1.666;2022-09-21T18:25:21;16.30;57.80
33988;DHT22;37428;53.580;-1.666;2022-09-21T18:28:35;16.10;58.60
33988;DHT22;37428;53.580;-1.666;2022-09-21T18:31:51;16.10;59.30
33988;DHT22;37428;53.580;-1.666;2022-09-21T18:35:19;16.00;59.40
33988;DHT22;37428;53.580;-1.666;2022-09-21T18:38:26;15.90;59.70
33988;DHT22;37428;53.580;-1.666;2022-09-21T18:41:35;15.70;60.10
33988;DHT22;37428;53.580;-1.666;2022-09-21T18:44:44;15.70;60.90
33988;DHT22;37428;53.580;-1.666;2022-09-21T18:47:52;15.70;60.80
33988;DHT22;37428;53.580;-1.666;2022-09-21T18:51:08;15.70;60.60
33988;DHT22;37428;53.580;-1.666;2022-09-21T18:54:18;15.70;60.80
33988;DHT22;37428;53.580;-1.666;2022-09-21T18:57:21;15.80;60.40
33988;DHT22;37428;53.580;-1.666;2022-09-21T19:00:25;15.70;60.30
33988;DHT22;37428;53.580;-1.666;2022-09-21T19:03:31;15.70;60.70
33988;DHT22;37428;53.580;-1.666;2022-09-21T19:06:41;15.70;60.60
33988;DHT22;37428;53.580;-1.666;2022-09-21T19:09:50;15.70;60.90
33988;DHT22;37428;53.580;-1.666;2022-09-21T19:13:12;15.70;60.90
33988;DHT22;37428;53.580;-1.666;2022-09-21T19:16:25;15.60;61.30
33988;DHT22;37428;53.580;-1.666;2022-09-21T19:19:40;15.60;61.40
33988;DHT22;37428;53.580;-1.666;2022-09-21T19:22:56;15.50;61.70
33988;DHT22;37428;53.580;-1.666;2022-09-21T19:26:19;15.60;61.90
33988;DHT22;37428;53.580;-1.666;2022-09-21T19:29:40;15.60;62.00
33988;DHT22;37428;53.580;-1.666;2022-09-21T19:32:48;15.50;62.20
33988;DHT22;37428;53.580;-1.666;2022-09-21T19:36:00;15.60;62.10
33988;DHT22;37428;53.580;-1.666;2022-09-21T19:39:03;15.50;62.30
33988;DHT22;37428;53.580;-1.666;2022-09-21T19:42:09;15.50;62.30
33988;DHT22;37428;53.580;-1.666;2022-09-21T19:45:18;15.50;62.20
33988;DHT22;37428;53.580;-1.666;2022-09-21T19:48:26;15.50;62.40
33988;DHT22;37428;53.580;-1.666;2022-09-21T19:51:39;15.50;62.30